sensor_id;sensor_type;location;lat;lon;timestamp;pressure;altitude;pressure_sealevel;temperature;humidity
788;BME280;16074;42.708;23.312;2023-06-10T00:00:23;142964.66;;;19.23;nan
788;BME280;16074;42.708;23.312;2023-06-10T00:02:52;142964.66;;;19.23;nan
788;BME280;16074;42.708;23.312;2023-06-10T00:05:21;142984.03;;;19.31;nan
788;BME280;16074;42.708;23.312;2023-06-10T00:07:49;142945.25;;;19.15;nan
788;BME280;16074;42.708;23.312;2023-06-10T00:10:17;142964.66;;;19.23;nan
788;BME280;16074;42.708;23.312;2023-06-10T00:12:47;142947.69;;;19.16;nan
788;BME280;16074;42.708;23.312;2023-06-10T00:15:16;142968.28;;;19.24;nan
788;BME280;16074;42.708;23.312;2023-06-10T00:17:44;142963.44;;;19.23;nan
788;BME280;16074;42.708;23.312;2023-06-10T00:20:13;142920.91;;;19.05;nan
788;BME280;16074;42.708;23.312;2023-06-10T00:22:41;142896.66;;;18.95;nan
788;BME280;16074;42.708;23.312;2023-06-10T00:25:13;142895.47;;;18.95;nan
788;BME280;16074;42.708;23.312;2023-06-10T00:27:41;142845.69;;;18.74;nan
788;BME280;16074;42.708;23.312;2023-06-10T00:30:11;142770.50;;;18.43;nan
788;BME280;16074;42.708;23.312;2023-06-10T00:32:40;142726.84;;;18.25;nan
788;BME280;16074;42.708;23.312;2023-06-10T00:35:08;142709.81;;;18.18;nan
788;BME280;16074;42.708;23.312;2023-06-10T00:37:37;142662.53;;;17.99;nan
788;BME280;16074;42.708;23.312;2023-06-10T00:40:06;142679.50;;;18.06;nan
788;BME280;16074;42.708;23.312;2023-06-10T00:42:36;142683.16;;;18.07;nan
788;BME280;16074;42.708;23.312;2023-06-10T00:45:05;142711.03;;;18.19;nan
788;BME280;16074;42.708;23.312;2023-06-10T00:47:37;142743.81;;;18.32;nan
788;BME280;16074;42.708;23.312;2023-06-10T00:50:07;142764.47;;;18.41;nan
788;BME280;16074;42.708;23.312;2023-06-10T00:52:35;142758.38;;;18.38;nan
788;BME280;16074;42.708;23.312;2023-06-10T00:55:04;142760.78;;;18.39;nan
788;BME280;16074;42.708;23.312;2023-06-10T00:57:36;142743.81;;;18.32;nan
788;BME280;16074;42.708;23.312;2023-06-10T01:00:05;142753.50;;;18.36;nan
788;BME280;16074;42.708;23.312;2023-06-10T01:02:37;142776.53;;;18.46;nan
788;BME280;16074;42.708;23.312;2023-06-10T01:05:05;142808.09;;;18.59;nan
788;BME280;16074;42.708;23.312;2023-06-10T01:07:37;142823.88;;;18.65;nan
788;BME280;16074;42.708;23.312;2023-06-10T01:10:11;142850.53;;;18.76;nan
788;BME280;16074;42.708;23.312;2023-06-10T01:12:49;142876.03;;;18.87;nan
788;BME280;16074;42.708;23.312;2023-06-10T01:15:20;142871.19;;;18.85;nan
788;BME280;16074;42.708;23.312;2023-06-10T01:17:58;142873.63;;;18.86;nan
788;BME280;16074;42.708;23.312;2023-06-10T01:20:30;142832.34;;;18.69;nan
788;BME280;16074;42.708;23.312;2023-06-10T01:23:01;142856.63;;;18.79;nan
788;BME280;16074;42.708;23.312;2023-06-10T01:25:31;142839.63;;;18.72;nan
788;BME280;16074;42.708;23.312;2023-06-10T01:28:06;142859.03;;;18.80;nan
788;BME280;16074;42.708;23.312;2023-06-10T01:30:41;142861.47;;;18.81;nan
788;BME280;16074;42.708;23.312;2023-06-10T01:33:13;142777.78;;;18.46;nan
788;BME280;16074;42.708;23.312;2023-06-10T01:35:43;142691.63;;;18.11;nan
788;BME280;16074;42.708;23.312;2023-06-10T01:38:14;142688.03;;;18.09;nan
788;BME280;16074;42.708;23.312;2023-06-10T01:40:43;142737.78;;;18.30;nan
788;BME280;16074;42.708;23.312;2023-06-10T01:43:13;142764.47;;;18.41;nan
788;BME280;16074;42.708;23.312;2023-06-10T01:45:42;142777.78;;;18.46;nan
788;BME280;16074;42.708;23.312;2023-06-10T01:48:10;142765.66;;;18.41;nan
788;BME280;16074;42.708;23.312;2023-06-10T01:50:38;142723.16;;;18.24;nan
788;BME280;16074;42.708;23.312;2023-06-10T01:53:07;142732.91;;;18.28;nan
788;BME280;16074;42.708;23.312;2023-06-10T01:55:36;142690.44;;;18.10;nan
788;BME280;16074;42.708;23.312;2023-06-10T01:58:05;142694.06;;;18.12;nan
788;BME280;16074;42.708;23.312;2023-06-10T02:00:33;142715.88;;;18.21;nan
788;BME280;16074;42.708;23.312;2023-06-10T02:03:02;142707.38;;;18.17;nan
788;BME280;16074;42.708;23.312;2023-06-10T02:05:30;142713.47;;;18.20;nan
788;BME280;16074;42.708;23.312;2023-06-10T02:07:58;142689.22;;;18.10;nan
788;BME280;16074;42.708;23.312;2023-06-10T02:10:27;142709.81;;;18.18;nan
788;BME280;16074;42.708;23.312;2023-06-10T02:12:58;142688.03;;;18.09;nan
788;BME280;16074;42.708;23.312;2023-06-10T02:15:26;142679.50;;;18.06;nan
788;BME280;16074;42.708;23.312;2023-06-10T02:17:54;142680.75;;;18.06;nan
788;BME280;16074;42.708;23.312;2023-06-10T02:20:23;142711.03;;;18.19;nan
788;BME280;16074;42.708;23.312;2023-06-10T02:22:52;142720.75;;;18.23;nan
788;BME280;16074;42.708;23.312;2023-06-10T02:25:20;142760.78;;;18.39;nan
788;BME280;16074;42.708;23.312;2023-06-10T02:27:49;142791.09;;;18.52;nan
788;BME280;16074;42.708;23.312;2023-06-10T02:30:20;142814.19;;;18.61;nan
788;BME280;16074;42.708;23.312;2023-06-10T02:32:49;142838.41;;;18.71;nan
788;BME280;16074;42.708;23.312;2023-06-10T02:35:19;142849.34;;;18.76;nan
788;BME280;16074;42.708;23.312;2023-06-10T02:37:50;142855.38;;;18.78;nan
788;BME280;16074;42.708;23.312;2023-06-10T02:40:19;142872.38;;;18.85;nan
788;BME280;16074;42.708;23.312;2023-06-10T02:42:48;142883.31;;;18.90;nan
788;BME280;16074;42.708;23.312;2023-06-10T02:45:17;142891.78;;;18.93;nan
788;BME280;16074;42.708;23.312;2023-06-10T02:47:47;142902.75;;;18.98;nan
788;BME280;16074;42.708;23.312;2023-06-10T02:50:16;142908.78;;;19.00;nan
788;BME280;16074;42.708;23.312;2023-06-10T02:53:01;142916.06;;;19.03;nan
788;BME280;16074;42.708;23.312;2023-06-10T02:55:30;142935.50;;;19.11;nan
788;BME280;16074;42.708;23.312;2023-06-10T02:58:02;142952.53;;;19.18;nan
788;BME280;16074;42.708;23.312;2023-06-10T03:00:31;142948.88;;;19.17;nan
788;BME280;16074;42.708;23.312;2023-06-10T03:03:01;142951.28;;;19.18;nan
788;BME280;16074;42.708;23.312;2023-06-10T03:05:39;142964.66;;;19.23;nan
788;BME280;16074;42.708;23.312;2023-06-10T03:08:08;142973.16;;;19.26;nan
788;BME280;16074;42.708;23.312;2023-06-10T03:10:40;142952.53;;;19.18;nan
788;BME280;16074;42.708;23.312;2023-06-10T03:13:11;142945.25;;;19.15;nan
788;BME280;16074;42.708;23.312;2023-06-10T03:15:39;142944.00;;;19.15;nan
788;BME280;16074;42.708;23.312;2023-06-10T03:18:12;142933.06;;;19.10;nan
788;BME280;16074;42.708;23.312;2023-06-10T03:20:43;142926.97;;;19.08;nan
788;BME280;16074;42.708;23.312;2023-06-10T03:23:11;142905.13;;;18.99;nan
788;BME280;16074;42.708;23.312;2023-06-10T03:25:40;142909.97;;;19.01;nan
788;BME280;16074;42.708;23.312;2023-06-10T03:28:12;142929.41;;;19.09;nan
788;BME280;16074;42.708;23.312;2023-06-10T03:30:41;142913.63;;;19.02;nan
788;BME280;16074;42.708;23.312;2023-06-10T03:33:10;142911.22;;;19.01;nan
788;BME280;16074;42.708;23.312;2023-06-10T03:35:41;142890.59;;;18.93;nan
788;BME280;16074;42.708;23.312;2023-06-10T03:38:10;142891.78;;;18.93;nan
788;BME280;16074;42.708;23.312;2023-06-10T03:40:39;142909.97;;;19.01;nan
788;BME280;16074;42.708;23.312;2023-06-10T03:43:08;142931.81;;;19.10;nan
788;BME280;16074;42.708;23.312;2023-06-10T03:45:36;142911.22;;;19.01;nan
788;BME280;16074;42.708;23.312;2023-06-10T03:48:05;142916.06;;;19.03;nan
788;BME280;16074;42.708;23.312;2023-06-10T03:50:44;142925.78;;;19.07;nan
788;BME280;16074;42.708;23.312;2023-06-10T03:53:14;142928.22;;;19.08;nan
788;BME280;16074;42.708;23.312;2023-06-10T03:55:43;142928.22;;;19.08;nan
788;BME280;16074;42.708;23.312;2023-06-10T03:58:15;142941.59;;;19.14;nan
788;BME280;16074;42.708;23.312;2023-06-10T04:00:45;142947.69;;;19.16;nan
788;BME280;16074;42.708;23.312;2023-06-10T04:03:13;142929.41;;;19.09;nan
788;BME280;16074;42.708;23.312;2023-06-10T04:05:47;142936.69;;;19.12;nan
788;BME280;16074;42.708;23.312;2023-06-10T04:08:15;142947.69;;;19.16;nan
788;BME280;16074;42.708;23.312;2023-06-10T04:10:44;142961.00;;;19.22;nan
788;BME280;16074;42.708;23.312;2023-06-10T04:13:12;142968.28;;;19.24;nan
788;BME280;16074;42.708;23.312;2023-06-10T04:15:50;142982.84;;;19.30;nan
788;BME280;16074;42.708;23.312;2023-06-10T04:18:19;142975.56;;;19.27;nan
788;BME280;16074;42.708;23.312;2023-06-10T04:20:51;142988.91;;;19.33;nan
788;BME280;16074;42.708;23.312;2023-06-10T04:23:19;142978.00;;;19.28;nan
788;BME280;16074;42.708;23.312;2023-06-10T04:25:48;142970.72;;;19.25;nan
788;BME280;16074;42.708;23.312;2023-06-10T04:28:17;142991.34;;;19.34;nan
788;BME280;16074;42.708;23.312;2023-06-10T04:30:46;142991.34;;;19.34;nan
788;BME280;16074;42.708;23.312;2023-06-10T04:33:15;142980.44;;;19.29;nan
788;BME280;16074;42.708;23.312;2023-06-10T04:35:43;142952.53;;;19.18;nan
788;BME280;16074;42.708;23.312;2023-06-10T04:38:16;142920.91;;;19.05;nan
788;BME280;16074;42.708;23.312;2023-06-10T04:40:45;142914.81;;;19.03;nan
788;BME280;16074;42.708;23.312;2023-06-10T04:43:14;142897.88;;;18.96;nan
788;BME280;16074;42.708;23.312;2023-06-10T04:45:45;142873.63;;;18.86;nan
788;BME280;16074;42.708;23.312;2023-06-10T04:48:14;142874.81;;;18.86;nan
788;BME280;16074;42.708;23.312;2023-06-10T04:50:42;142868.75;;;18.84;nan
788;BME280;16074;42.708;23.312;2023-06-10T04:53:10;142856.63;;;18.79;nan
788;BME280;16074;42.708;23.312;2023-06-10T04:55:46;142868.75;;;18.84;nan
788;BME280;16074;42.708;23.312;2023-06-10T04:58:15;142871.19;;;18.85;nan
788;BME280;16074;42.708;23.312;2023-06-10T05:00:43;142872.38;;;18.85;nan
788;BME280;16074;42.708;23.312;2023-06-10T05:03:11;142909.97;;;19.01;nan
788;BME280;16074;42.708;23.312;2023-06-10T05:05:40;142911.22;;;19.01;nan
788;BME280;16074;42.708;23.312;2023-06-10T05:08:08;142924.53;;;19.07;nan
788;BME280;16074;42.708;23.312;2023-06-10T05:10:37;142941.59;;;19.14;nan
788;BME280;16074;42.708;23.312;2023-06-10T05:13:06;142967.09;;;19.24;nan
788;BME280;16074;42.708;23.312;2023-06-10T05:15:35;142919.69;;;19.05;nan
788;BME280;16074;42.708;23.312;2023-06-10T05:18:04;142884.50;;;18.90;nan
788;BME280;16074;42.708;23.312;2023-06-10T05:20:32;142879.66;;;18.88;nan
788;BME280;16074;42.708;23.312;2023-06-10T05:23:00;142865.09;;;18.82;nan
788;BME280;16074;42.708;23.312;2023-06-10T05:25:30;142822.66;;;18.65;nan
788;BME280;16074;42.708;23.312;2023-06-10T05:27:59;142815.38;;;18.62;nan
788;BME280;16074;42.708;23.312;2023-06-10T05:30:29;142840.81;;;18.72;nan
788;BME280;16074;42.708;23.312;2023-06-10T05:32:57;142874.81;;;18.86;nan
788;BME280;16074;42.708;23.312;2023-06-10T05:35:25;142895.47;;;18.95;nan
788;BME280;16074;42.708;23.312;2023-06-10T05:37:54;142918.50;;;19.04;nan
788;BME280;16074;42.708;23.312;2023-06-10T05:40:22;142934.25;;;19.11;nan
788;BME280;16074;42.708;23.312;2023-06-10T05:42:50;142937.91;;;19.12;nan
788;BME280;16074;42.708;23.312;2023-06-10T05:45:19;142998.63;;;19.37;nan
788;BME280;16074;42.708;23.312;2023-06-10T05:47:48;143053.22;;;19.59;nan
788;BME280;16074;42.708;23.312;2023-06-10T05:50:17;143077.53;;;19.69;nan
788;BME280;16074;42.708;23.312;2023-06-10T05:52:46;143109.09;;;19.82;nan
788;BME280;16074;42.708;23.312;2023-06-10T05:55:14;143139.44;;;19.95;nan
788;BME280;16074;42.708;23.312;2023-06-10T05:57:42;143183.22;;;20.13;nan
788;BME280;16074;42.708;23.312;2023-06-10T06:00:11;143207.53;;;20.23;nan
788;BME280;16074;42.708;23.312;2023-06-10T06:02:40;143235.44;;;20.34;nan
788;BME280;16074;42.708;23.312;2023-06-10T06:05:10;143280.38;;;20.52;nan
788;BME280;16074;42.708;23.312;2023-06-10T06:07:39;143319.28;;;20.68;nan
788;BME280;16074;42.708;23.312;2023-06-10T06:10:08;143327.75;;;20.72;nan
788;BME280;16074;42.708;23.312;2023-06-10T06:12:37;143310.78;;;20.65;nan
788;BME280;16074;42.708;23.312;2023-06-10T06:15:06;143358.22;;;20.84;nan
788;BME280;16074;42.708;23.312;2023-06-10T06:17:35;143383.72;;;20.95;nan
788;BME280;16074;42.708;23.312;2023-06-10T06:20:05;143403.19;;;21.03;nan
788;BME280;16074;42.708;23.312;2023-06-10T06:22:35;143445.72;;;21.20;nan
788;BME280;16074;42.708;23.312;2023-06-10T06:25:04;143422.63;;;21.11;nan
788;BME280;16074;42.708;23.312;2023-06-10T06:27:34;143446.97;;;21.21;nan
788;BME280;16074;42.708;23.312;2023-06-10T06:30:02;143490.69;;;21.39;nan
788;BME280;16074;42.708;23.312;2023-06-10T06:32:31;143478.53;;;21.34;nan
788;BME280;16074;42.708;23.312;2023-06-10T06:35:00;143489.50;;;21.38;nan
788;BME280;16074;42.708;23.312;2023-06-10T06:37:28;143491.94;;;21.39;nan
788;BME280;16074;42.708;23.312;2023-06-10T06:40:16;143506.53;;;21.45;nan
788;BME280;16074;42.708;23.312;2023-06-10T06:42:44;143511.38;;;21.47;nan
788;BME280;16074;42.708;23.312;2023-06-10T06:45:36;143544.25;;;21.61;nan
788;BME280;16074;42.708;23.312;2023-06-10T06:48:05;143592.91;;;21.80;nan
788;BME280;16074;42.708;23.312;2023-06-10T06:50:33;143614.75;;;21.89;nan
788;BME280;16074;42.708;23.312;2023-06-10T06:53:02;143612.34;;;21.88;nan
788;BME280;16074;42.708;23.312;2023-06-10T06:55:31;143633.03;;;21.97;nan
788;BME280;16074;42.708;23.312;2023-06-10T06:58:00;143662.25;;;22.09;nan
788;BME280;16074;42.708;23.312;2023-06-10T07:00:31;143607.47;;;21.86;nan
788;BME280;16074;42.708;23.312;2023-06-10T07:02:59;143545.44;;;21.61;nan
788;BME280;16074;42.708;23.312;2023-06-10T07:05:28;143564.91;;;21.69;nan
788;BME280;16074;42.708;23.312;2023-06-10T07:07:57;143630.59;;;21.96;nan
788;BME280;16074;42.708;23.312;2023-06-10T07:10:26;143681.66;;;22.17;nan
788;BME280;16074;42.708;23.312;2023-06-10T07:12:56;143699.94;;;22.24;nan
788;BME280;16074;42.708;23.312;2023-06-10T07:15:24;143741.34;;;22.41;nan
788;BME280;16074;42.708;23.312;2023-06-10T07:17:53;143762.06;;;22.50;nan
788;BME280;16074;42.708;23.312;2023-06-10T07:20:22;143771.78;;;22.54;nan
788;BME280;16074;42.708;23.312;2023-06-10T07:22:50;143779.09;;;22.57;nan
788;BME280;16074;42.708;23.312;2023-06-10T07:25:19;143743.78;;;22.42;nan
788;BME280;16074;42.708;23.312;2023-06-10T07:27:47;143727.97;;;22.36;nan
788;BME280;16074;42.708;23.312;2023-06-10T07:30:17;143794.91;;;22.63;nan
788;BME280;16074;42.708;23.312;2023-06-10T07:32:46;143807.06;;;22.68;nan
788;BME280;16074;42.708;23.312;2023-06-10T07:35:14;143865.53;;;22.92;nan
788;BME280;16074;42.708;23.312;2023-06-10T07:37:42;143941.03;;;23.23;nan
788;BME280;16074;42.708;23.312;2023-06-10T07:40:11;144010.44;;;23.51;nan
788;BME280;16074;42.708;23.312;2023-06-10T07:42:39;143992.19;;;23.44;nan
788;BME280;16074;42.708;23.312;2023-06-10T07:45:09;144073.81;;;23.77;nan
788;BME280;16074;42.708;23.312;2023-06-10T07:47:40;144064.06;;;23.73;nan
788;BME280;16074;42.708;23.312;2023-06-10T07:50:09;144075.00;;;23.78;nan
788;BME280;16074;42.708;23.312;2023-06-10T07:52:37;144146.94;;;24.07;nan
788;BME280;16074;42.708;23.312;2023-06-10T07:55:06;144240.78;;;24.45;nan
788;BME280;16074;42.708;23.312;2023-06-10T07:57:35;144310.31;;;24.74;nan
788;BME280;16074;42.708;23.312;2023-06-10T08:00:06;144409.09;;;25.14;nan
788;BME280;16074;42.708;23.312;2023-06-10T08:02:42;144518.91;;;25.59;nan
788;BME280;16074;42.708;23.312;2023-06-10T08:05:10;144570.13;;;25.80;nan
788;BME280;16074;42.708;23.312;2023-06-10T08:07:40;144615.38;;;25.98;nan
788;BME280;16074;42.708;23.312;2023-06-10T08:10:10;144695.91;;;26.31;nan
788;BME280;16074;42.708;23.312;2023-06-10T08:12:38;144726.41;;;26.44;nan
788;BME280;16074;42.708;23.312;2023-06-10T08:15:07;144836.38;;;26.88;nan
788;BME280;16074;42.708;23.312;2023-06-10T08:17:37;144904.81;;;27.16;nan
788;BME280;16074;42.708;23.312;2023-06-10T08:20:08;144913.34;;;27.20;nan
788;BME280;16074;42.708;23.312;2023-06-10T08:22:36;144809.50;;;26.77;nan
788;BME280;16074;42.708;23.312;2023-06-10T08:25:05;144897.47;;;27.13;nan
788;BME280;16074;42.708;23.312;2023-06-10T08:27:34;144893.84;;;27.12;nan
788;BME280;16074;42.708;23.312;2023-06-10T08:30:03;144976.88;;;27.46;nan
788;BME280;16074;42.708;23.312;2023-06-10T08:32:31;145067.34;;;27.83;nan
788;BME280;16074;42.708;23.312;2023-06-10T08:35:00;145150.50;;;28.16;nan
788;BME280;16074;42.708;23.312;2023-06-10T08:37:29;145107.72;;;27.99;nan
788;BME280;16074;42.708;23.312;2023-06-10T08:39:58;145178.63;;;28.28;nan
788;BME280;16074;42.708;23.312;2023-06-10T08:42:33;145253.22;;;28.58;nan
788;BME280;16074;42.708;23.312;2023-06-10T08:45:05;145261.75;;;28.62;nan
788;BME280;16074;42.708;23.312;2023-06-10T08:47:37;145346.22;;;28.96;nan
788;BME280;16074;42.708;23.312;2023-06-10T08:50:08;145404.94;;;29.20;nan
788;BME280;16074;42.708;23.312;2023-06-10T08:52:43;145430.63;;;29.30;nan
788;BME280;16074;42.708;23.312;2023-06-10T08:55:15;145469.84;;;29.46;nan
788;BME280;16074;42.708;23.312;2023-06-10T08:57:45;145472.28;;;29.47;nan
788;BME280;16074;42.708;23.312;2023-06-10T09:00:16;145419.63;;;29.26;nan
788;BME280;16074;42.708;23.312;2023-06-10T09:02:45;145460.06;;;29.42;nan
788;BME280;16074;42.708;23.312;2023-06-10T09:05:14;144973.25;;;27.44;nan
788;BME280;16074;42.708;23.312;2023-06-10T09:07:45;145061.25;;;27.80;nan
788;BME280;16074;42.708;23.312;2023-06-10T09:10:16;145134.56;;;28.10;nan
788;BME280;16074;42.708;23.312;2023-06-10T09:12:44;145150.50;;;28.16;nan
788;BME280;16074;42.708;23.312;2023-06-10T09:15:12;145145.59;;;28.14;nan
788;BME280;16074;42.708;23.312;2023-06-10T09:17:41;145138.25;;;28.11;nan
788;BME280;16074;42.708;23.312;2023-06-10T09:20:10;145127.22;;;28.07;nan
788;BME280;16074;42.708;23.312;2023-06-10T09:22:41;145062.44;;;27.81;nan
788;BME280;16074;42.708;23.312;2023-06-10T09:25:12;145104.03;;;27.98;nan
788;BME280;16074;42.708;23.312;2023-06-10T09:27:46;145064.91;;;27.82;nan
788;BME280;16074;42.708;23.312;2023-06-10T09:30:27;145079.56;;;27.88;nan
788;BME280;16074;42.708;23.312;2023-06-10T09:32:57;145022.09;;;27.64;nan
788;BME280;16074;42.708;23.312;2023-06-10T09:35:27;145124.78;;;28.06;nan
788;BME280;16074;42.708;23.312;2023-06-10T09:37:57;145159.03;;;28.20;nan
788;BME280;16074;42.708;23.312;2023-06-10T09:40:27;145260.56;;;28.61;nan
788;BME280;16074;42.708;23.312;2023-06-10T09:42:57;145315.59;;;28.84;nan
788;BME280;16074;42.708;23.312;2023-06-10T09:45:29;145330.31;;;28.90;nan
788;BME280;16074;42.708;23.312;2023-06-10T09:47:59;145387.81;;;29.13;nan
788;BME280;16074;42.708;23.312;2023-06-10T09:50:32;145320.53;;;28.86;nan
788;BME280;16074;42.708;23.312;2023-06-10T09:53:01;145351.09;;;28.98;nan
788;BME280;16074;42.708;23.312;2023-06-10T09:55:33;145255.66;;;28.59;nan
788;BME280;16074;42.708;23.312;2023-06-10T09:58:01;145304.59;;;28.79;nan
788;BME280;16074;42.708;23.312;2023-06-10T10:00:31;145449.00;;;29.38;nan
788;BME280;16074;42.708;23.312;2023-06-10T10:03:00;145587.34;;;29.94;nan
788;BME280;16074;42.708;23.312;2023-06-10T10:05:29;145762.53;;;30.65;nan
788;BME280;16074;42.708;23.312;2023-06-10T10:07:58;145903.47;;;31.23;nan
788;BME280;16074;42.708;23.312;2023-06-10T10:10:26;145979.44;;;31.54;nan
788;BME280;16074;42.708;23.312;2023-06-10T10:12:56;146034.63;;;31.76;nan
788;BME280;16074;42.708;23.312;2023-06-10T10:15:29;146185.50;;;32.37;nan
788;BME280;16074;42.708;23.312;2023-06-10T10:18:04;146275.09;;;32.74;nan
788;BME280;16074;42.708;23.312;2023-06-10T10:20:37;146380.66;;;33.16;nan
788;BME280;16074;42.708;23.312;2023-06-10T10:23:08;146499.75;;;33.65;nan
788;BME280;16074;42.708;23.312;2023-06-10T10:25:41;146670.47;;;34.34;nan
788;BME280;16074;42.708;23.312;2023-06-10T10:28:12;146827.75;;;34.98;nan
788;BME280;16074;42.708;23.312;2023-06-10T10:30:42;146943.28;;;35.45;nan
788;BME280;16074;42.708;23.312;2023-06-10T10:33:17;147056.44;;;35.90;nan
788;BME280;16074;42.708;23.312;2023-06-10T10:35:46;146967.88;;;35.55;nan
788;BME280;16074;42.708;23.312;2023-06-10T10:38:15;147010.94;;;35.72;nan
788;BME280;16074;42.708;23.312;2023-06-10T10:40:44;147121.63;;;36.17;nan
788;BME280;16074;42.708;23.312;2023-06-10T10:43:15;147319.75;;;36.97;nan
788;BME280;16074;42.708;23.312;2023-06-10T10:45:45;147409.59;;;37.33;nan
788;BME280;16074;42.708;23.312;2023-06-10T10:48:14;147205.34;;;36.51;nan
788;BME280;16074;42.708;23.312;2023-06-10T10:50:43;147325.94;;;37.00;nan
788;BME280;16074;42.708;23.312;2023-06-10T10:53:19;147271.75;;;36.78;nan
788;BME280;16074;42.708;23.312;2023-06-10T10:55:58;147204.09;;;36.50;nan
788;BME280;16074;42.708;23.312;2023-06-10T10:58:28;147161.00;;;36.33;nan
788;BME280;16074;42.708;23.312;2023-06-10T11:00:56;147115.50;;;36.14;nan
788;BME280;16074;42.708;23.312;2023-06-10T11:03:28;147162.22;;;36.33;nan
788;BME280;16074;42.708;23.312;2023-06-10T11:05:58;147031.81;;;35.80;nan
788;BME280;16074;42.708;23.312;2023-06-10T11:08:48;146943.28;;;35.45;nan
788;BME280;16074;42.708;23.312;2023-06-10T11:11:18;146841.25;;;35.03;nan
788;BME280;16074;42.708;23.312;2023-06-10T11:14:08;146602.88;;;34.07;nan
788;BME280;16074;42.708;23.312;2023-06-10T11:16:40;146512.03;;;33.70;nan
788;BME280;16074;42.708;23.312;2023-06-10T11:19:09;146291.03;;;32.80;nan
788;BME280;16074;42.708;23.312;2023-06-10T11:21:58;146239.44;;;32.59;nan
788;BME280;16074;42.708;23.312;2023-06-10T11:24:29;146214.97;;;32.49;nan
788;BME280;16074;42.708;23.312;2023-06-10T11:27:24;146297.19;;;32.83;nan
788;BME280;16074;42.708;23.312;2023-06-10T11:29:58;146318.03;;;32.91;nan
788;BME280;16074;42.708;23.312;2023-06-10T11:32:30;146388.00;;;33.19;nan
788;BME280;16074;42.708;23.312;2023-06-10T11:35:00;146456.72;;;33.47;nan
788;BME280;16074;42.708;23.312;2023-06-10T11:37:30;146529.19;;;33.77;nan
788;BME280;16074;42.708;23.312;2023-06-10T11:39:59;146509.59;;;33.69;nan
788;BME280;16074;42.708;23.312;2023-06-10T11:42:28;146478.81;;;33.56;nan
788;BME280;16074;42.708;23.312;2023-06-10T11:44:58;146532.91;;;33.78;nan
788;BME280;16074;42.708;23.312;2023-06-10T11:47:29;146505.88;;;33.67;nan
788;BME280;16074;42.708;23.312;2023-06-10T11:49:58;146616.34;;;34.12;nan
788;BME280;16074;42.708;23.312;2023-06-10T11:52:26;146633.59;;;34.19;nan
788;BME280;16074;42.708;23.312;2023-06-10T11:54:55;146631.16;;;34.18;nan
788;BME280;16074;42.708;23.312;2023-06-10T11:57:24;146638.50;;;34.21;nan
788;BME280;16074;42.708;23.312;2023-06-10T11:59:52;146557.44;;;33.88;nan
788;BME280;16074;42.708;23.312;2023-06-10T12:02:22;146467.78;;;33.52;nan
788;BME280;16074;42.708;23.312;2023-06-10T12:04:50;146473.91;;;33.54;nan
788;BME280;16074;42.708;23.312;2023-06-10T12:07:20;146462.88;;;33.50;nan
788;BME280;16074;42.708;23.312;2023-06-10T12:09:58;146435.88;;;33.39;nan
788;BME280;16074;42.708;23.312;2023-06-10T12:12:44;146388.00;;;33.19;nan
788;BME280;16074;42.708;23.312;2023-06-10T12:15:23;146256.66;;;32.66;nan
788;BME280;16074;42.708;23.312;2023-06-10T12:17:53;146276.31;;;32.74;nan
788;BME280;16074;42.708;23.312;2023-06-10T12:20:26;146241.91;;;32.60;nan
788;BME280;16074;42.708;23.312;2023-06-10T12:22:55;146145.06;;;32.21;nan
788;BME280;16074;42.708;23.312;2023-06-10T12:25:27;146089.84;;;31.98;nan
788;BME280;16074;42.708;23.312;2023-06-10T12:27:58;146046.88;;;31.81;nan
788;BME280;16074;42.708;23.312;2023-06-10T12:30:27;145997.91;;;31.61;nan
788;BME280;16074;42.708;23.312;2023-06-10T12:32:56;145912.03;;;31.26;nan
788;BME280;16074;42.708;23.312;2023-06-10T12:35:26;145871.59;;;31.10;nan
788;BME280;16074;42.708;23.312;2023-06-10T12:37:56;145849.50;;;31.01;nan
788;BME280;16074;42.708;23.312;2023-06-10T12:40:28;145820.09;;;30.89;nan
788;BME280;16074;42.708;23.312;2023-06-10T12:42:58;145780.91;;;30.73;nan
788;BME280;16074;42.708;23.312;2023-06-10T12:45:28;145713.50;;;30.46;nan
788;BME280;16074;42.708;23.312;2023-06-10T12:48:09;145692.66;;;30.37;nan
788;BME280;16074;42.708;23.312;2023-06-10T12:50:39;145697.56;;;30.39;nan
788;BME280;16074;42.708;23.312;2023-06-10T12:53:08;145692.66;;;30.37;nan
788;BME280;16074;42.708;23.312;2023-06-10T12:55:38;145696.38;;;30.39;nan
788;BME280;16074;42.708;23.312;2023-06-10T12:58:06;145706.16;;;30.43;nan
788;BME280;16074;42.708;23.312;2023-06-10T13:00:35;145681.66;;;30.33;nan
788;BME280;16074;42.708;23.312;2023-06-10T13:03:03;145696.38;;;30.39;nan
788;BME280;16074;42.708;23.312;2023-06-10T13:05:35;145697.56;;;30.39;nan
788;BME280;16074;42.708;23.312;2023-06-10T13:08:04;145670.66;;;30.28;nan
788;BME280;16074;42.708;23.312;2023-06-10T13:10:33;145649.81;;;30.20;nan
788;BME280;16074;42.708;23.312;2023-06-10T13:13:02;145515.13;;;29.65;nan
788;BME280;16074;42.708;23.312;2023-06-10T13:15:32;145303.38;;;28.79;nan
788;BME280;16074;42.708;23.312;2023-06-10T13:18:07;145104.03;;;27.98;nan
788;BME280;16074;42.708;23.312;2023-06-10T13:20:37;145000.09;;;27.55;nan
788;BME280;16074;42.708;23.312;2023-06-10T13:23:05;144659.28;;;26.16;nan
788;BME280;16074;42.708;23.312;2023-06-10T13:25:34;144536.00;;;25.66;nan
788;BME280;16074;42.708;23.312;2023-06-10T13:28:02;144465.22;;;25.37;nan
788;BME280;16074;42.708;23.312;2023-06-10T13:30:31;144340.78;;;24.86;nan
788;BME280;16074;42.708;23.312;2023-06-10T13:32:59;144189.56;;;24.24;nan
788;BME280;16074;42.708;23.312;2023-06-10T13:35:27;144220.03;;;24.37;nan
788;BME280;16074;42.708;23.312;2023-06-10T13:37:57;144185.94;;;24.23;nan